createdAt,value
2019-05-09T00:01:43.744Z,14.93
2019-05-09T00:04:14.015Z,14.99
2019-05-09T00:06:44.635Z,14.96
2019-05-09T00:09:15.392Z,15.11
2019-05-09T00:11:45.952Z,15.07
2019-05-09T00:14:16.523Z,15.01
2019-05-09T00:16:47.110Z,14.99
2019-05-09T00:19:17.708Z,15.01
2019-05-09T00:21:54.062Z,14.96
2019-05-09T00:24:24.758Z,14.85
2019-05-09T00:26:55.344Z,14.94
2019-05-09T00:29:30.554Z,14.81
2019-05-09T00:32:18.083Z,14.96
2019-05-09T00:34:56.069Z,14.96
2019-05-09T00:37:44.815Z,14.89
2019-05-09T00:40:16.369Z,14.83
2019-05-09T00:42:46.930Z,14.90
2019-05-09T00:45:19.141Z,14.85
2019-05-09T00:47:49.721Z,14.92
2019-05-09T00:50:20.304Z,14.97
2019-05-09T00:52:50.980Z,14.97
2019-05-09T00:55:23.747Z,14.94
2019-05-09T00:57:53.963Z,15.04
2019-05-09T01:00:24.813Z,15.01
2019-05-09T01:02:55.455Z,15.05
2019-05-09T01:05:26.316Z,14.97
2019-05-09T01:07:58.333Z,15.01
2019-05-09T01:10:29.146Z,15.06
2019-05-09T01:12:59.621Z,15.09
2019-05-09T01:15:30.203Z,14.94
2019-05-09T01:18:00.786Z,15.14
2019-05-09T01:20:33.319Z,14.83
2019-05-09T01:23:03.662Z,14.92
2019-05-09T01:25:34.214Z,14.90
2019-05-09T01:28:04.842Z,14.90
2019-05-09T01:30:35.474Z,14.91
2019-05-09T01:33:24.200Z,14.84
2019-05-09T01:35:54.887Z,14.84
2019-05-09T01:38:25.494Z,14.84
2019-05-09T01:40:56.086Z,14.90
2019-05-09T01:43:26.666Z,14.99
2019-05-09T01:45:57.259Z,14.85
2019-05-09T01:48:29.533Z,14.89
2019-05-09T01:51:00.088Z,14.81
2019-05-09T01:53:33.438Z,14.73
2019-05-09T01:56:05.276Z,14.72
2019-05-09T01:58:35.873Z,14.73
2019-05-09T02:01:08.321Z,14.65
2019-05-09T02:03:38.902Z,14.71
2019-05-09T02:06:09.481Z,14.78
2019-05-09T02:08:40.037Z,14.60
2019-05-09T02:11:13.090Z,14.80
2019-05-09T02:13:44.215Z,14.72
2019-05-09T02:16:19.521Z,14.72
2019-05-09T02:18:54.694Z,14.64
2019-05-09T02:21:25.253Z,14.71
2019-05-09T02:23:55.839Z,14.74
2019-05-09T02:26:26.389Z,14.70
2019-05-09T02:28:56.967Z,14.61
2019-05-09T02:31:27.623Z,14.76
2019-05-09T02:33:58.176Z,14.58
2019-05-09T02:36:29.595Z,14.39
2019-05-09T02:39:00.210Z,14.58
2019-05-09T02:41:30.846Z,14.53
2019-05-09T02:44:01.454Z,14.54
2019-05-09T02:46:39.657Z,14.43
2019-05-09T02:49:11.745Z,14.40
2019-05-09T02:51:42.558Z,14.44
2019-05-09T02:54:13.113Z,14.47
2019-05-09T02:56:44.436Z,14.53
2019-05-09T02:59:32.782Z,14.39
2019-05-09T03:02:19.560Z,14.46
2019-05-09T03:04:49.276Z,14.54
2019-05-09T03:07:21.469Z,14.67
2019-05-09T03:09:52.038Z,14.59
2019-05-09T03:12:32.051Z,14.70
2019-05-09T03:14:54.852Z,14.60
2019-05-09T03:17:27.856Z,14.38
2019-05-09T03:19:58.639Z,14.52
2019-05-09T03:22:29.594Z,14.61
2019-05-09T03:25:00.166Z,14.62
2019-05-09T03:27:32.383Z,14.58
2019-05-09T03:30:04.596Z,14.62
2019-05-09T03:32:38.537Z,14.47
2019-05-09T03:35:08.407Z,14.47
2019-05-09T03:37:39.056Z,14.56
2019-05-09T03:40:09.701Z,14.70
2019-05-09T03:42:43.599Z,14.63
2019-05-09T03:45:14.270Z,14.73
2019-05-09T03:47:49.164Z,14.73
2019-05-09T03:50:19.740Z,14.72
2019-05-09T03:52:50.294Z,14.76
2019-05-09T03:55:22.512Z,14.75
2019-05-09T03:58:03.568Z,14.76
2019-05-09T04:00:34.129Z,14.78
2019-05-09T04:03:04.774Z,14.73
2019-05-09T04:05:37.519Z,14.68
2019-05-09T04:08:18.221Z,14.77
2019-05-09T04:10:51.575Z,14.71
2019-05-09T04:13:24.333Z,14.81
2019-05-09T04:15:55.219Z,14.85
2019-05-09T04:18:27.735Z,14.85
2019-05-09T04:20:58.372Z,14.81
2019-05-09T04:23:28.951Z,14.87
2019-05-09T04:26:01.193Z,14.72
2019-05-09T04:28:31.826Z,14.90
2019-05-09T04:31:02.392Z,14.91
2019-05-09T04:33:32.967Z,14.86
2019-05-09T04:36:03.574Z,14.93
2019-05-09T04:38:34.249Z,14.83
2019-05-09T04:41:04.893Z,14.81
2019-05-09T04:43:39.455Z,14.76
2019-05-09T04:46:12.861Z,14.73
2019-05-09T04:48:42.262Z,14.80
2019-05-09T04:51:12.844Z,14.80
2019-05-09T04:53:43.408Z,14.76
2019-05-09T04:56:24.902Z,14.79
2019-05-09T04:58:55.487Z,14.86
2019-05-09T05:01:39.900Z,14.77
2019-05-09T05:04:10.903Z,14.89
2019-05-09T05:06:42.417Z,14.86
2019-05-09T05:09:13.101Z,15.16
2019-05-09T05:11:46.520Z,15.09
2019-05-09T05:14:22.667Z,15.17
2019-05-09T05:16:55.728Z,15.21
2019-05-09T05:19:30.929Z,15.49
2019-05-09T05:22:01.250Z,15.69
2019-05-09T05:24:39.288Z,15.62
2019-05-09T05:27:10.034Z,15.36
2019-05-09T05:29:40.611Z,15.69
2019-05-09T05:32:14.106Z,15.58
2019-05-09T05:34:48.034Z,15.37
2019-05-09T05:37:19.598Z,15.25
2019-05-09T05:39:50.206Z,15.38
2019-05-09T05:42:22.259Z,15.24
2019-05-09T05:44:53.776Z,15.33
2019-05-09T05:47:27.254Z,15.26
2019-05-09T05:49:58.262Z,15.21
2019-05-09T05:52:28.840Z,15.26
2019-05-09T05:55:00.215Z,15.33
2019-05-09T05:57:30.929Z,15.41
2019-05-09T06:00:01.480Z,15.42
2019-05-09T06:02:33.166Z,15.52
2019-05-09T06:05:04.340Z,15.34
2019-05-09T06:07:34.918Z,15.52
2019-05-09T06:10:08.264Z,15.58
2019-05-09T06:12:38.629Z,15.51
2019-05-09T06:15:09.851Z,15.50
2019-05-09T06:17:40.430Z,15.57
2019-05-09T06:20:11.352Z,15.57
2019-05-09T06:22:41.898Z,15.57
2019-05-09T06:25:12.542Z,15.54
2019-05-09T06:27:43.109Z,15.57
2019-05-09T06:30:17.577Z,15.54
2019-05-09T06:32:48.166Z,15.52
2019-05-09T06:35:21.898Z,15.62
2019-05-09T06:37:52.457Z,15.63
2019-05-09T06:40:24.668Z,15.68
2019-05-09T06:42:55.295Z,15.78
2019-05-09T06:45:30.714Z,15.66
2019-05-09T06:48:01.352Z,15.72
2019-05-09T06:50:31.954Z,15.73
2019-05-09T06:53:02.511Z,15.63
2019-05-09T06:55:33.098Z,15.66
2019-05-09T06:58:05.385Z,15.30
2019-05-09T07:00:39.116Z,15.49
2019-05-09T07:03:11.637Z,15.19
2019-05-09T07:05:53.173Z,15.11
2019-05-09T07:08:31.197Z,15.02
2019-05-09T07:11:00.534Z,14.98
2019-05-09T07:13:31.200Z,15.09
2019-05-09T07:16:02.235Z,15.06
2019-05-09T07:18:32.813Z,15.23
2019-05-09T07:21:03.698Z,15.11
2019-05-09T07:23:34.284Z,15.05
2019-05-09T07:26:12.566Z,15.13
2019-05-09T07:28:43.157Z,15.13
2019-05-09T07:31:28.437Z,15.27
2019-05-09T07:34:03.746Z,15.10
2019-05-09T07:36:34.698Z,15.26
2019-05-09T07:39:08.712Z,15.16
2019-05-09T07:41:39.651Z,15.09
2019-05-09T07:44:10.219Z,15.01
2019-05-09T07:46:51.237Z,15.16
2019-05-09T07:49:21.843Z,15.17
2019-05-09T07:51:52.522Z,15.07
2019-05-09T07:54:25.701Z,15.19
2019-05-09T07:56:57.855Z,15.20
2019-05-09T07:59:27.744Z,15.17
2019-05-09T08:01:58.441Z,15.16
2019-05-09T08:04:29.014Z,15.24
2019-05-09T08:06:59.877Z,15.12
2019-05-09T08:09:33.009Z,14.76
2019-05-09T08:12:03.591Z,14.82
2019-05-09T08:14:39.259Z,14.65
2019-05-09T08:17:10.123Z,14.84
2019-05-09T08:19:40.702Z,14.51
2019-05-09T08:22:12.380Z,14.62
2019-05-09T08:24:44.087Z,14.82
2019-05-09T08:27:14.653Z,14.92
2019-05-09T08:29:47.689Z,15.14
2019-05-09T08:32:18.160Z,14.86
2019-05-09T08:34:48.802Z,14.82
2019-05-09T08:37:19.380Z,14.72
2019-05-09T08:39:49.953Z,14.90
2019-05-09T08:42:20.523Z,14.91
2019-05-09T08:44:51.090Z,15.02
2019-05-09T08:47:21.669Z,15.03
2019-05-09T08:50:01.583Z,14.96
2019-05-09T08:52:32.129Z,14.74
2019-05-09T08:55:02.741Z,14.76
2019-05-09T08:57:33.424Z,14.60
2019-05-09T09:00:08.701Z,14.54
2019-05-09T09:02:39.253Z,14.72
2019-05-09T09:05:10.073Z,14.72
2019-05-09T09:07:40.649Z,14.83
2019-05-09T09:10:11.645Z,14.53
2019-05-09T09:12:42.268Z,14.52
2019-05-09T09:15:12.934Z,14.56
2019-05-09T09:17:43.518Z,14.49
2019-05-09T09:20:14.218Z,14.25
2019-05-09T09:22:44.807Z,14.07
2019-05-09T09:25:15.406Z,14.00
2019-05-09T09:27:50.696Z,13.70
2019-05-09T09:30:24.713Z,13.81
2019-05-09T09:32:51.147Z,13.87
2019-05-09T09:35:21.814Z,13.92
2019-05-09T09:37:52.476Z,14.36
2019-05-09T09:40:23.959Z,13.93
2019-05-09T09:42:54.564Z,14.11
2019-05-09T09:45:27.739Z,14.16
2019-05-09T09:47:59.196Z,14.12
2019-05-09T09:50:30.182Z,14.49
2019-05-09T09:53:01.843Z,14.67
2019-05-09T09:55:32.608Z,14.61
2019-05-09T09:58:03.723Z,14.80
2019-05-09T10:01:08.810Z,14.43
2019-05-09T10:03:38.323Z,14.47
2019-05-09T10:06:09.130Z,14.64
2019-05-09T10:08:40.472Z,14.91
2019-05-09T10:11:11.418Z,14.77
2019-05-09T10:13:42.003Z,14.72
2019-05-09T10:16:28.590Z,15.16
2019-05-09T10:18:48.145Z,14.99
2019-05-09T10:21:20.366Z,14.76
2019-05-09T10:23:51.176Z,14.90
2019-05-09T10:26:21.782Z,14.92
2019-05-09T10:28:52.341Z,15.28
2019-05-09T10:31:23.093Z,15.18
2019-05-09T10:33:55.168Z,15.00
2019-05-09T10:36:27.848Z,15.07
2019-05-09T10:38:58.841Z,15.16
2019-05-09T10:41:29.989Z,15.34
2019-05-09T10:44:02.207Z,15.40
2019-05-09T10:46:52.135Z,15.07
2019-05-09T10:49:08.517Z,15.15
2019-05-09T10:51:39.193Z,15.17
2019-05-09T10:54:09.784Z,15.39
2019-05-09T10:56:40.457Z,15.30
2019-05-09T10:59:11.200Z,15.17
2019-05-09T11:01:41.795Z,14.82
2019-05-09T11:04:12.873Z,15.23
2019-05-09T11:06:43.431Z,15.37
2019-05-09T11:09:14.008Z,15.33
2019-05-09T11:11:44.740Z,15.09
2019-05-09T11:14:31.606Z,15.54
2019-05-09T11:16:54.295Z,15.70
2019-05-09T11:19:20.027Z,15.96
2019-05-09T11:21:50.597Z,16.00
2019-05-09T11:24:21.465Z,15.79
2019-05-09T11:26:53.641Z,15.72
2019-05-09T11:29:24.207Z,15.81
2019-05-09T11:31:54.772Z,15.85
2019-05-09T11:34:25.402Z,15.70
2019-05-09T11:36:57.908Z,15.74
2019-05-09T11:39:36.548Z,15.93
2019-05-09T11:42:00.553Z,15.81
2019-05-09T11:44:31.118Z,15.59
2019-05-09T11:47:01.689Z,15.45
2019-05-09T11:49:32.515Z,15.84
2019-05-09T11:52:03.088Z,16.07
2019-05-09T11:54:33.755Z,15.93
2019-05-09T11:57:04.327Z,16.16
2019-05-09T11:59:34.890Z,16.28
2019-05-09T12:02:08.917Z,16.10
2019-05-09T12:04:39.090Z,16.06
2019-05-09T12:07:09.666Z,15.87
2019-05-09T12:09:40.226Z,15.77
2019-05-09T12:12:10.795Z,16.19
2019-05-09T12:14:41.365Z,16.21
2019-05-09T12:17:11.920Z,16.11
2019-05-09T12:19:42.496Z,16.09
2019-05-09T12:22:13.087Z,16.10
2019-05-09T12:24:44.885Z,16.11
2019-05-09T12:27:18.571Z,16.19
2019-05-09T12:29:48.400Z,16.27
2019-05-09T12:32:22.094Z,16.43
2019-05-09T12:34:52.723Z,16.61
2019-05-09T12:37:23.319Z,16.64
2019-05-09T12:39:55.805Z,16.94
2019-05-09T12:42:28.835Z,17.13
2019-05-09T12:44:59.107Z,16.82
2019-05-09T12:47:29.852Z,17.07
2019-05-09T12:50:02.923Z,17.20
2019-05-09T12:52:33.045Z,17.19
2019-05-09T12:55:04.330Z,17.13
2019-05-09T12:57:34.896Z,17.14
2019-05-09T13:00:11.985Z,17.35
2019-05-09T13:02:42.581Z,17.56
2019-05-09T13:05:13.396Z,17.54
2019-05-09T13:07:44.017Z,17.67
2019-05-09T13:10:14.811Z,17.63
2019-05-09T13:12:47.591Z,17.49
2019-05-09T13:15:20.854Z,17.42
2019-05-09T13:17:52.342Z,17.44
2019-05-09T13:20:22.918Z,17.38
2019-05-09T13:22:53.480Z,17.38
2019-05-09T13:25:24.115Z,17.35
2019-05-09T13:27:55.073Z,17.19
2019-05-09T13:30:28.308Z,17.36
2019-05-09T13:32:57.991Z,17.29
2019-05-09T13:35:28.625Z,17.27
2019-05-09T13:37:59.793Z,17.26
2019-05-09T13:40:30.426Z,17.25
2019-05-09T13:43:01.118Z,17.36
2019-05-09T13:45:31.699Z,17.16
2019-05-09T13:48:02.284Z,17.21
2019-05-09T13:50:33.942Z,17.26
2019-05-09T13:53:04.558Z,17.37
2019-05-09T13:55:37.921Z,17.50
2019-05-09T13:58:07.748Z,17.69
2019-05-09T14:00:39.413Z,17.61
2019-05-09T14:03:11.231Z,17.70
2019-05-09T14:05:42.817Z,17.73
2019-05-09T14:08:14.285Z,17.93
2019-05-09T14:10:44.922Z,17.80
2019-05-09T14:13:15.507Z,17.66
2019-05-09T14:15:48.672Z,17.70
2019-05-09T14:18:19.103Z,17.61
2019-05-09T14:20:49.852Z,17.46
2019-05-09T14:23:21.520Z,17.44
2019-05-09T14:25:52.226Z,17.41
2019-05-09T14:28:22.871Z,17.39
2019-05-09T14:30:53.754Z,17.33
2019-05-09T14:33:24.646Z,17.16
2019-05-09T14:35:55.232Z,17.25
2019-05-09T14:38:28.035Z,17.09
2019-05-09T14:40:59.483Z,17.03
2019-05-09T14:43:30.530Z,17.11
2019-05-09T14:46:01.222Z,17.20
2019-05-09T14:48:31.824Z,17.22
2019-05-09T14:51:02.524Z,17.27
2019-05-09T14:53:33.383Z,17.20
2019-05-09T14:56:04.082Z,17.75
2019-05-09T14:58:34.652Z,17.63
2019-05-09T15:01:08.388Z,17.52
2019-05-09T15:03:38.905Z,17.58
2019-05-09T15:06:09.820Z,17.34
2019-05-09T15:08:40.428Z,17.49
2019-05-09T15:11:11.161Z,17.53
2019-05-09T15:13:41.723Z,17.37
2019-05-09T15:16:13.988Z,17.31
2019-05-09T15:18:44.590Z,17.30
2019-05-09T15:21:16.658Z,17.42
2019-05-09T15:23:48.192Z,17.45
2019-05-09T15:26:20.511Z,17.39
2019-05-09T15:28:51.086Z,17.46
2019-05-09T15:31:22.067Z,17.34
2019-05-09T15:33:52.724Z,17.25
2019-05-09T15:36:23.400Z,17.34
2019-05-09T15:38:54.091Z,17.35
2019-05-09T15:41:24.677Z,17.24
2019-05-09T15:43:57.919Z,17.21
2019-05-09T15:46:30.007Z,17.21
2019-05-09T15:49:00.630Z,17.18
2019-05-09T15:51:32.195Z,17.20
2019-05-09T15:54:02.932Z,17.14
2019-05-09T15:56:33.689Z,17.05
2019-05-09T15:59:04.309Z,17.06
2019-05-09T16:01:38.520Z,17.23
2019-05-09T16:04:09.143Z,17.24
2019-05-09T16:06:39.753Z,17.16
2019-05-09T16:09:12.059Z,17.33
2019-05-09T16:11:42.853Z,17.33
2019-05-09T16:14:14.610Z,17.33
2019-05-09T16:16:47.850Z,18.38
2019-05-09T16:19:19.352Z,18.38
2019-05-09T16:21:49.959Z,18.34
2019-05-09T16:24:20.559Z,18.03
2019-05-09T16:26:51.605Z,17.62
2019-05-09T16:29:22.279Z,17.42
2019-05-09T16:31:53.146Z,17.86
2019-05-09T16:34:23.718Z,18.00
2019-05-09T16:36:54.325Z,17.64
2019-05-09T16:39:27.794Z,17.99
2019-05-09T16:41:59.158Z,18.17
2019-05-09T16:44:29.955Z,18.77
2019-05-09T16:47:00.552Z,18.72
2019-05-09T16:49:31.152Z,18.33
2019-05-09T16:52:01.733Z,17.75
2019-05-09T16:54:34.026Z,17.37
2019-05-09T16:57:04.663Z,17.30
2019-05-09T16:59:35.242Z,16.89
2019-05-09T17:02:18.714Z,16.96
2019-05-09T17:04:40.432Z,16.91
2019-05-09T17:07:11.009Z,17.34
2019-05-09T17:09:44.983Z,17.40
2019-05-09T17:12:18.658Z,17.29
2019-05-09T17:14:49.372Z,17.73
2019-05-09T17:17:19.976Z,17.15
2019-05-09T17:19:50.922Z,17.32
2019-05-09T17:22:39.850Z,17.22
2019-05-09T17:25:10.539Z,17.29
2019-05-09T17:27:41.491Z,17.94
2019-05-09T17:30:12.295Z,18.25
2019-05-09T17:32:43.126Z,18.15
2019-05-09T17:35:14.677Z,17.85
2019-05-09T17:37:45.280Z,17.59
2019-05-09T17:40:19.050Z,17.72
2019-05-09T17:42:48.581Z,17.31
2019-05-09T17:45:20.098Z,17.67
2019-05-09T17:47:51.115Z,18.01
2019-05-09T17:50:21.981Z,18.58
2019-05-09T17:52:52.787Z,18.60
2019-05-09T17:55:23.468Z,17.79
2019-05-09T17:57:54.139Z,17.45
2019-05-09T18:00:27.836Z,17.85
2019-05-09T18:02:59.160Z,17.79
2019-05-09T18:05:31.726Z,17.28
2019-05-09T18:08:03.900Z,16.63
2019-05-09T18:10:38.043Z,17.03
2019-05-09T18:13:08.541Z,16.90
2019-05-09T18:15:40.089Z,17.31
2019-05-09T18:18:10.850Z,17.93
2019-05-09T18:20:42.946Z,18.50
2019-05-09T18:23:13.604Z,18.25
2019-05-09T18:25:49.197Z,18.68
2019-05-09T18:28:19.336Z,18.49
2019-05-09T18:30:50.080Z,17.78
2019-05-09T18:33:38.080Z,17.37
2019-05-09T18:36:09.215Z,16.74
2019-05-09T18:38:41.933Z,16.26
2019-05-09T18:41:17.686Z,16.09
2019-05-09T18:43:48.269Z,15.76
2019-05-09T18:46:21.721Z,15.60
2019-05-09T18:48:52.658Z,16.40
2019-05-09T18:51:23.668Z,16.44
2019-05-09T18:53:54.304Z,16.24
2019-05-09T18:56:24.884Z,16.41
2019-05-09T18:58:55.568Z,16.53
2019-05-09T19:01:26.285Z,16.70
2019-05-09T19:03:57.665Z,16.39
2019-05-09T19:06:28.478Z,15.90
2019-05-09T19:08:59.579Z,15.92
2019-05-09T19:11:30.921Z,15.83
2019-05-09T19:14:03.527Z,15.93
2019-05-09T19:16:52.891Z,15.97
2019-05-09T19:19:25.325Z,15.36
2019-05-09T19:22:06.384Z,15.03
2019-05-09T19:24:34.425Z,14.82
2019-05-09T19:27:05.339Z,14.71
2019-05-09T19:29:35.988Z,14.72
2019-05-09T19:32:07.504Z,14.66
2019-05-09T19:34:42.406Z,14.53
2019-05-09T19:37:13.153Z,14.42
2019-05-09T19:39:43.778Z,14.37
2019-05-09T19:42:15.686Z,14.22
2019-05-09T19:44:46.984Z,14.07
2019-05-09T19:47:19.205Z,13.94
2019-05-09T19:49:50.470Z,13.95
2019-05-09T19:52:36.205Z,13.97
2019-05-09T19:54:55.658Z,13.99
2019-05-09T19:57:27.465Z,13.98
2019-05-09T19:59:58.262Z,13.89
2019-05-09T20:02:29.745Z,13.62
2019-05-09T20:05:00.724Z,13.55
2019-05-09T20:07:33.072Z,13.43
2019-05-09T20:10:11.337Z,13.36
2019-05-09T20:13:00.842Z,13.33
2019-05-09T20:15:31.544Z,13.36
2019-05-09T20:18:02.297Z,13.24
2019-05-09T20:20:33.287Z,13.22
2019-05-09T20:23:04.472Z,13.45
2019-05-09T20:25:35.182Z,13.53
2019-05-09T20:28:06.147Z,13.55
2019-05-09T20:30:36.686Z,13.51
2019-05-09T20:33:07.779Z,13.52
2019-05-09T20:35:38.756Z,13.46
2019-05-09T20:38:10.099Z,13.44
2019-05-09T20:40:42.401Z,13.53
2019-05-09T20:43:13.573Z,13.53
2019-05-09T20:45:44.990Z,13.56
2019-05-09T20:48:15.971Z,13.51
2019-05-09T20:50:46.832Z,13.49
2019-05-09T20:53:17.745Z,13.39
2019-05-09T20:55:48.885Z,13.35
2019-05-09T20:58:19.638Z,13.31
2019-05-09T21:00:50.542Z,13.25
2019-05-09T21:03:21.474Z,13.15
2019-05-09T21:05:52.309Z,13.10
2019-05-09T21:08:24.314Z,13.06
2019-05-09T21:10:55.125Z,13.06
2019-05-09T21:13:26.102Z,12.97
2019-05-09T21:15:56.958Z,13.05
2019-05-09T21:18:27.952Z,12.78
2019-05-09T21:20:59.818Z,12.90
2019-05-09T21:23:30.602Z,12.92
2019-05-09T21:26:01.414Z,13.01
2019-05-09T21:28:33.160Z,12.99
2019-05-09T21:31:04.329Z,12.89
2019-05-09T21:33:35.438Z,13.01
2019-05-09T21:36:06.038Z,13.01
2019-05-09T21:38:36.618Z,13.04
2019-05-09T21:41:07.188Z,13.09
2019-05-09T21:43:37.769Z,13.07
2019-05-09T21:46:08.352Z,12.99
2019-05-09T21:48:38.930Z,12.93
2019-05-09T21:51:09.564Z,12.90
2019-05-09T21:53:41.347Z,12.88
2019-05-09T21:56:12.129Z,12.82
2019-05-09T21:58:42.719Z,12.81
2019-05-09T22:01:16.418Z,12.77
2019-05-09T22:03:47.407Z,12.73
2019-05-09T22:06:17.988Z,12.59
2019-05-09T22:08:48.570Z,12.51
2019-05-09T22:11:19.145Z,12.35
2019-05-09T22:13:49.704Z,12.34
2019-05-09T22:16:21.233Z,12.32
2019-05-09T22:18:52.173Z,12.22
2019-05-09T22:21:22.822Z,12.23
2019-05-09T22:23:56.786Z,12.35
2019-05-09T22:26:25.684Z,12.43
2019-05-09T22:28:56.255Z,12.31
2019-05-09T22:31:26.836Z,12.11
2019-05-09T22:33:57.411Z,12.15
2019-05-09T22:36:27.969Z,12.10
2019-05-09T22:38:58.552Z,12.09
2019-05-09T22:41:29.109Z,12.04
2019-05-09T22:43:59.761Z,12.07
2019-05-09T22:46:30.439Z,12.15
2019-05-09T22:49:01.025Z,12.31
2019-05-09T22:51:31.577Z,12.42
2019-05-09T22:54:12.415Z,12.21
2019-05-09T22:56:34.536Z,12.17
2019-05-09T22:59:05.394Z,12.04
2019-05-09T23:01:35.973Z,12.09
2019-05-09T23:04:06.582Z,12.21
2019-05-09T23:06:37.520Z,12.24
2019-05-09T23:09:08.131Z,12.21
2019-05-09T23:11:38.807Z,12.21
2019-05-09T23:14:09.596Z,12.25
2019-05-09T23:16:41.142Z,12.15
2019-05-09T23:19:11.724Z,12.17
2019-05-09T23:21:42.308Z,12.17
2019-05-09T23:24:27.486Z,12.22
2019-05-09T23:26:47.122Z,12.17
2019-05-09T23:29:17.858Z,12.14
2019-05-09T23:31:50.078Z,12.12
2019-05-09T23:34:20.656Z,12.07
2019-05-09T23:36:51.338Z,11.95
2019-05-09T23:39:29.420Z,11.94
2019-05-09T23:42:00.014Z,11.84
2019-05-09T23:44:30.790Z,11.93
2019-05-09T23:47:01.384Z,11.83
2019-05-09T23:49:31.996Z,11.95
2019-05-09T23:52:02.859Z,11.94
2019-05-09T23:54:51.423Z,11.85
2019-05-09T23:57:39.771Z,11.88
